sensor_id;sensor_type;location;lat;lon;timestamp;temperature;humidity
20091;DHT22;10205;49.678;6.560;2022-10-17T00:00:07;18.30;73.00
20091;DHT22;10205;49.678;6.560;2022-10-17T00:02:36;18.30;72.70
20091;DHT22;10205;49.678;6.560;2022-10-17T00:05:04;18.30;72.90
20091;DHT22;10205;49.678;6.560;2022-10-17T00:07:31;18.20;72.90
20091;DHT22;10205;49.678;6.560;2022-10-17T00:09:58;18.20;72.60
20091;DHT22;10205;49.678;6.560;2022-10-17T00:12:25;18.20;73.00
20091;DHT22;10205;49.678;6.560;2022-10-17T00:14:54;18.20;73.00
20091;DHT22;10205;49.678;6.560;2022-10-17T00:17:21;18.20;73.10
20091;DHT22;10205;49.678;6.560;2022-10-17T00:19:49;18.20;73.30
20091;DHT22;10205;49.678;6.560;2022-10-17T00:22:16;18.10;73.30
20091;DHT22;10205;49.678;6.560;2022-10-17T00:24:43;18.20;73.20
20091;DHT22;10205;49.678;6.560;2022-10-17T00:27:10;18.20;73.20
20091;DHT22;10205;49.678;6.560;2022-10-17T00:29:37;18.10;72.80
20091;DHT22;10205;49.678;6.560;2022-10-17T00:32:06;18.20;72.70
20091;DHT22;10205;49.678;6.560;2022-10-17T00:34:33;18.10;73.00
20091;DHT22;10205;49.678;6.560;2022-10-17T00:37:00;18.10;72.70
20091;DHT22;10205;49.678;6.560;2022-10-17T00:39:28;18.10;72.50
20091;DHT22;10205;49.678;6.560;2022-10-17T00:41:55;18.10;72.50
20091;DHT22;10205;49.678;6.560;2022-10-17T00:44:59;18.10;72.30
20091;DHT22;10205;49.678;6.560;2022-10-17T00:47:30;18.10;72.10
20091;DHT22;10205;49.678;6.560;2022-10-17T00:49:59;18.10;72.30
20091;DHT22;10205;49.678;6.560;2022-10-17T00:52:27;18.10;72.70
20091;DHT22;10205;49.678;6.560;2022-10-17T00:54:59;18.00;72.80
20091;DHT22;10205;49.678;6.560;2022-10-17T00:57:30;18.00;72.90
20091;DHT22;10205;49.678;6.560;2022-10-17T00:59:58;18.00;72.50
20091;DHT22;10205;49.678;6.560;2022-10-17T01:02:30;18.00;73.50
20091;DHT22;10205;49.678;6.560;2022-10-17T01:04:57;17.90;72.70
20091;DHT22;10205;49.678;6.560;2022-10-17T01:07:26;17.90;72.80
20091;DHT22;10205;49.678;6.560;2022-10-17T01:09:55;17.90;72.60
20091;DHT22;10205;49.678;6.560;2022-10-17T01:12:24;17.90;72.60
20091;DHT22;10205;49.678;6.560;2022-10-17T01:15:04;17.90;73.00
20091;DHT22;10205;49.678;6.560;2022-10-17T01:17:48;17.80;73.20
20091;DHT22;10205;49.678;6.560;2022-10-17T01:21:10;17.80;73.20
20091;DHT22;10205;49.678;6.560;2022-10-17T01:24:24;17.80;73.30
20091;DHT22;10205;49.678;6.560;2022-10-17T01:27:33;17.90;73.00
20091;DHT22;10205;49.678;6.560;2022-10-17T01:30:25;17.80;72.70
20091;DHT22;10205;49.678;6.560;2022-10-17T01:33:07;17.80;72.60
20091;DHT22;10205;49.678;6.560;2022-10-17T01:35:41;17.80;72.60
20091;DHT22;10205;49.678;6.560;2022-10-17T01:38:19;17.80;72.80
20091;DHT22;10205;49.678;6.560;2022-10-17T01:40:52;17.80;72.90
20091;DHT22;10205;49.678;6.560;2022-10-17T01:43:31;17.70;73.00
20091;DHT22;10205;49.678;6.560;2022-10-17T01:46:07;17.70;73.10
20091;DHT22;10205;49.678;6.560;2022-10-17T01:48:42;17.70;73.10
20091;DHT22;10205;49.678;6.560;2022-10-17T01:51:15;17.70;73.00
20091;DHT22;10205;49.678;6.560;2022-10-17T01:53:50;17.70;72.90
20091;DHT22;10205;49.678;6.560;2022-10-17T01:56:22;17.70;72.60
20091;DHT22;10205;49.678;6.560;2022-10-17T01:58:55;17.70;72.80
20091;DHT22;10205;49.678;6.560;2022-10-17T02:01:28;17.70;72.80
20091;DHT22;10205;49.678;6.560;2022-10-17T02:03:59;17.70;72.90
20091;DHT22;10205;49.678;6.560;2022-10-17T02:06:33;17.70;73.10
20091;DHT22;10205;49.678;6.560;2022-10-17T02:09:13;17.60;73.00
20091;DHT22;10205;49.678;6.560;2022-10-17T02:11:53;17.60;73.00
20091;DHT22;10205;49.678;6.560;2022-10-17T02:14:40;17.60;73.20
20091;DHT22;10205;49.678;6.560;2022-10-17T02:17:23;17.60;73.10
20091;DHT22;10205;49.678;6.560;2022-10-17T02:20:08;17.60;73.00
20091;DHT22;10205;49.678;6.560;2022-10-17T02:22:47;17.50;73.20
20091;DHT22;10205;49.678;6.560;2022-10-17T02:25:26;17.50;73.20
20091;DHT22;10205;49.678;6.560;2022-10-17T02:28:06;17.50;72.80
20091;DHT22;10205;49.678;6.560;2022-10-17T02:30:46;17.50;73.00
20091;DHT22;10205;49.678;6.560;2022-10-17T02:33:20;17.50;73.30
20091;DHT22;10205;49.678;6.560;2022-10-17T02:35:55;17.50;73.40
20091;DHT22;10205;49.678;6.560;2022-10-17T02:38:29;17.50;73.40
20091;DHT22;10205;49.678;6.560;2022-10-17T02:40:59;17.50;73.30
20091;DHT22;10205;49.678;6.560;2022-10-17T02:43:27;17.50;74.10
20091;DHT22;10205;49.678;6.560;2022-10-17T02:45:55;17.50;73.10
20091;DHT22;10205;49.678;6.560;2022-10-17T02:48:26;17.50;73.20
20091;DHT22;10205;49.678;6.560;2022-10-17T02:51:06;17.40;73.30
20091;DHT22;10205;49.678;6.560;2022-10-17T02:53:43;17.40;73.10
20091;DHT22;10205;49.678;6.560;2022-10-17T02:56:18;17.40;73.30
20091;DHT22;10205;49.678;6.560;2022-10-17T02:58:50;17.40;73.10
20091;DHT22;10205;49.678;6.560;2022-10-17T03:01:22;17.40;72.90
20091;DHT22;10205;49.678;6.560;2022-10-17T03:03:50;17.40;73.00
20091;DHT22;10205;49.678;6.560;2022-10-17T03:06:31;17.40;73.00
20091;DHT22;10205;49.678;6.560;2022-10-17T03:08:58;17.40;73.00
20091;DHT22;10205;49.678;6.560;2022-10-17T03:11:25;17.30;73.10
20091;DHT22;10205;49.678;6.560;2022-10-17T03:13:52;17.30;73.20
20091;DHT22;10205;49.678;6.560;2022-10-17T03:16:20;17.30;73.40
20091;DHT22;10205;49.678;6.560;2022-10-17T03:18:47;17.30;73.40
20091;DHT22;10205;49.678;6.560;2022-10-17T03:21:14;17.30;73.40
20091;DHT22;10205;49.678;6.560;2022-10-17T03:23:43;17.30;73.50
20091;DHT22;10205;49.678;6.560;2022-10-17T03:26:10;17.30;73.50
20091;DHT22;10205;49.678;6.560;2022-10-17T03:28:37;17.20;73.50
20091;DHT22;10205;49.678;6.560;2022-10-17T03:31:09;17.20;73.30
20091;DHT22;10205;49.678;6.560;2022-10-17T03:33:38;17.20;73.50
20091;DHT22;10205;49.678;6.560;2022-10-17T03:36:06;17.20;73.20
20091;DHT22;10205;49.678;6.560;2022-10-17T03:38:34;17.20;73.00
20091;DHT22;10205;49.678;6.560;2022-10-17T03:41:04;17.20;74.20
20091;DHT22;10205;49.678;6.560;2022-10-17T03:43:32;17.20;73.40
20091;DHT22;10205;49.678;6.560;2022-10-17T03:46:00;17.20;73.50
20091;DHT22;10205;49.678;6.560;2022-10-17T03:48:28;17.20;73.60
20091;DHT22;10205;49.678;6.560;2022-10-17T03:50:58;17.20;73.60
20091;DHT22;10205;49.678;6.560;2022-10-17T03:53:26;17.20;74.40
20091;DHT22;10205;49.678;6.560;2022-10-17T03:55:54;17.20;73.60
20091;DHT22;10205;49.678;6.560;2022-10-17T03:58:23;17.10;73.50
20091;DHT22;10205;49.678;6.560;2022-10-17T04:00:50;17.10;73.50
20091;DHT22;10205;49.678;6.560;2022-10-17T04:03:17;17.10;73.40
20091;DHT22;10205;49.678;6.560;2022-10-17T04:05:45;17.10;73.10
20091;DHT22;10205;49.678;6.560;2022-10-17T04:08:12;17.10;73.30
20091;DHT22;10205;49.678;6.560;2022-10-17T04:10:39;17.10;73.20
20091;DHT22;10205;49.678;6.560;2022-10-17T04:13:06;17.10;73.50
20091;DHT22;10205;49.678;6.560;2022-10-17T04:15:34;17.00;73.40
20091;DHT22;10205;49.678;6.560;2022-10-17T04:18:01;17.00;73.30
20091;DHT22;10205;49.678;6.560;2022-10-17T04:20:29;17.00;73.10
20091;DHT22;10205;49.678;6.560;2022-10-17T04:22:56;17.00;73.10
20091;DHT22;10205;49.678;6.560;2022-10-17T04:25:23;16.90;73.50
20091;DHT22;10205;49.678;6.560;2022-10-17T04:27:50;16.90;73.60
20091;DHT22;10205;49.678;6.560;2022-10-17T04:30:17;16.90;73.60
20091;DHT22;10205;49.678;6.560;2022-10-17T04:32:46;16.90;73.80
20091;DHT22;10205;49.678;6.560;2022-10-17T04:35:13;16.90;74.70
20091;DHT22;10205;49.678;6.560;2022-10-17T04:37:40;16.90;73.90
20091;DHT22;10205;49.678;6.560;2022-10-17T04:40:08;16.90;73.90
20091;DHT22;10205;49.678;6.560;2022-10-17T04:42:36;16.90;73.60
20091;DHT22;10205;49.678;6.560;2022-10-17T04:45:04;16.90;73.20
20091;DHT22;10205;49.678;6.560;2022-10-17T04:47:32;16.90;73.50
20091;DHT22;10205;49.678;6.560;2022-10-17T04:50:01;16.90;73.70
20091;DHT22;10205;49.678;6.560;2022-10-17T04:52:29;16.90;73.70
20091;DHT22;10205;49.678;6.560;2022-10-17T04:54:57;16.90;73.50
20091;DHT22;10205;49.678;6.560;2022-10-17T04:57:24;16.90;73.50
20091;DHT22;10205;49.678;6.560;2022-10-17T04:59:52;16.90;73.60
20091;DHT22;10205;49.678;6.560;2022-10-17T05:02:19;16.90;73.80
20091;DHT22;10205;49.678;6.560;2022-10-17T05:04:46;16.90;73.60
20091;DHT22;10205;49.678;6.560;2022-10-17T05:07:14;16.90;73.70
20091;DHT22;10205;49.678;6.560;2022-10-17T05:09:44;16.90;73.80
20091;DHT22;10205;49.678;6.560;2022-10-17T05:12:11;16.90;73.80
20091;DHT22;10205;49.678;6.560;2022-10-17T05:14:38;16.90;74.40
20091;DHT22;10205;49.678;6.560;2022-10-17T05:17:05;16.90;73.10
20091;DHT22;10205;49.678;6.560;2022-10-17T05:19:33;16.90;73.40
20091;DHT22;10205;49.678;6.560;2022-10-17T05:22:00;16.90;73.20
20091;DHT22;10205;49.678;6.560;2022-10-17T05:24:29;16.90;73.40
20091;DHT22;10205;49.678;6.560;2022-10-17T05:26:56;16.90;72.80
20091;DHT22;10205;49.678;6.560;2022-10-17T05:29:23;16.80;72.90
20091;DHT22;10205;49.678;6.560;2022-10-17T05:31:50;16.80;73.00
20091;DHT22;10205;49.678;6.560;2022-10-17T05:34:17;16.80;73.00
20091;DHT22;10205;49.678;6.560;2022-10-17T05:36:44;16.80;72.80
20091;DHT22;10205;49.678;6.560;2022-10-17T05:39:12;16.80;72.90
20091;DHT22;10205;49.678;6.560;2022-10-17T05:41:45;16.80;73.70
20091;DHT22;10205;49.678;6.560;2022-10-17T05:44:12;16.80;72.90
20091;DHT22;10205;49.678;6.560;2022-10-17T05:46:40;16.80;73.00
20091;DHT22;10205;49.678;6.560;2022-10-17T05:49:08;16.80;72.60
20091;DHT22;10205;49.678;6.560;2022-10-17T05:51:35;16.70;72.60
20091;DHT22;10205;49.678;6.560;2022-10-17T05:54:04;16.70;72.80
20091;DHT22;10205;49.678;6.560;2022-10-17T05:56:32;16.70;72.90
20091;DHT22;10205;49.678;6.560;2022-10-17T05:59:01;16.70;73.00
20091;DHT22;10205;49.678;6.560;2022-10-17T06:01:29;16.70;73.20
20091;DHT22;10205;49.678;6.560;2022-10-17T06:03:56;16.70;72.30
20091;DHT22;10205;49.678;6.560;2022-10-17T06:06:23;16.70;72.50
20091;DHT22;10205;49.678;6.560;2022-10-17T06:08:50;16.60;72.50
20091;DHT22;10205;49.678;6.560;2022-10-17T06:11:17;16.60;72.60
20091;DHT22;10205;49.678;6.560;2022-10-17T06:13:44;16.60;72.70
20091;DHT22;10205;49.678;6.560;2022-10-17T06:16:13;16.60;72.40
20091;DHT22;10205;49.678;6.560;2022-10-17T06:18:40;16.60;72.50
20091;DHT22;10205;49.678;6.560;2022-10-17T06:21:10;16.60;72.50
20091;DHT22;10205;49.678;6.560;2022-10-17T06:23:37;16.50;72.60
20091;DHT22;10205;49.678;6.560;2022-10-17T06:26:06;16.50;72.00
20091;DHT22;10205;49.678;6.560;2022-10-17T06:28:34;16.50;72.40
20091;DHT22;10205;49.678;6.560;2022-10-17T06:31:04;16.50;72.40
20091;DHT22;10205;49.678;6.560;2022-10-17T06:33:34;16.50;72.50
20091;DHT22;10205;49.678;6.560;2022-10-17T06:36:02;16.50;73.70
20091;DHT22;10205;49.678;6.560;2022-10-17T06:38:30;16.50;72.80
20091;DHT22;10205;49.678;6.560;2022-10-17T06:41:03;16.40;72.70
20091;DHT22;10205;49.678;6.560;2022-10-17T06:43:33;16.40;72.60
20091;DHT22;10205;49.678;6.560;2022-10-17T06:46:00;16.40;72.90
20091;DHT22;10205;49.678;6.560;2022-10-17T06:48:27;16.40;73.00
20091;DHT22;10205;49.678;6.560;2022-10-17T06:50:59;16.40;72.90
20091;DHT22;10205;49.678;6.560;2022-10-17T06:53:27;16.40;72.50
20091;DHT22;10205;49.678;6.560;2022-10-17T06:55:54;16.40;72.60
20091;DHT22;10205;49.678;6.560;2022-10-17T06:58:26;16.40;72.60
20091;DHT22;10205;49.678;6.560;2022-10-17T07:00:57;16.30;72.70
20091;DHT22;10205;49.678;6.560;2022-10-17T07:03:25;16.40;73.60
20091;DHT22;10205;49.678;6.560;2022-10-17T07:05:53;16.30;72.60
20091;DHT22;10205;49.678;6.560;2022-10-17T07:08:23;16.30;72.50
20091;DHT22;10205;49.678;6.560;2022-10-17T07:10:51;16.30;72.70
20091;DHT22;10205;49.678;6.560;2022-10-17T07:13:18;16.30;72.80
20091;DHT22;10205;49.678;6.560;2022-10-17T07:15:46;16.30;72.90
20091;DHT22;10205;49.678;6.560;2022-10-17T07:18:13;16.30;73.00
20091;DHT22;10205;49.678;6.560;2022-10-17T07:20:41;16.30;73.10
20091;DHT22;10205;49.678;6.560;2022-10-17T07:23:08;16.30;73.10
20091;DHT22;10205;49.678;6.560;2022-10-17T07:25:37;16.20;73.10
20091;DHT22;10205;49.678;6.560;2022-10-17T07:28:04;16.30;73.20
20091;DHT22;10205;49.678;6.560;2022-10-17T07:30:32;16.20;73.40
20091;DHT22;10205;49.678;6.560;2022-10-17T07:32:59;16.20;73.60
20091;DHT22;10205;49.678;6.560;2022-10-17T07:35:27;16.20;73.60
20091;DHT22;10205;49.678;6.560;2022-10-17T07:37:54;16.30;73.80
20091;DHT22;10205;49.678;6.560;2022-10-17T07:40:21;16.20;73.80
20091;DHT22;10205;49.678;6.560;2022-10-17T07:42:50;16.20;73.80
20091;DHT22;10205;49.678;6.560;2022-10-17T07:45:17;16.30;74.20
20091;DHT22;10205;49.678;6.560;2022-10-17T07:47:44;16.30;74.30
20091;DHT22;10205;49.678;6.560;2022-10-17T07:50:11;16.30;74.30
20091;DHT22;10205;49.678;6.560;2022-10-17T07:52:39;16.30;74.30
20091;DHT22;10205;49.678;6.560;2022-10-17T07:55:08;16.30;74.50
20091;DHT22;10205;49.678;6.560;2022-10-17T07:57:35;16.30;75.00
20091;DHT22;10205;49.678;6.560;2022-10-17T08:00:08;16.30;75.40
20091;DHT22;10205;49.678;6.560;2022-10-17T08:02:35;16.30;75.90
20091;DHT22;10205;49.678;6.560;2022-10-17T08:05:03;16.40;75.80
20091;DHT22;10205;49.678;6.560;2022-10-17T08:07:30;16.40;76.50
20091;DHT22;10205;49.678;6.560;2022-10-17T08:09:58;16.50;76.90
20091;DHT22;10205;49.678;6.560;2022-10-17T08:12:25;16.50;76.90
20091;DHT22;10205;49.678;6.560;2022-10-17T08:14:56;16.50;77.30
20091;DHT22;10205;49.678;6.560;2022-10-17T08:17:25;16.60;78.70
20091;DHT22;10205;49.678;6.560;2022-10-17T08:19:52;16.60;78.30
20091;DHT22;10205;49.678;6.560;2022-10-17T08:22:19;16.70;78.40
20091;DHT22;10205;49.678;6.560;2022-10-17T08:24:47;16.70;78.80
20091;DHT22;10205;49.678;6.560;2022-10-17T08:27:14;16.80;78.80
20091;DHT22;10205;49.678;6.560;2022-10-17T08:29:46;16.90;79.00
20091;DHT22;10205;49.678;6.560;2022-10-17T08:32:17;17.00;80.20
20091;DHT22;10205;49.678;6.560;2022-10-17T08:34:45;17.10;79.80
20091;DHT22;10205;49.678;6.560;2022-10-17T08:37:13;17.20;80.10
20091;DHT22;10205;49.678;6.560;2022-10-17T08:39:41;17.30;80.70
20091;DHT22;10205;49.678;6.560;2022-10-17T08:42:24;17.40;81.40
20091;DHT22;10205;49.678;6.560;2022-10-17T08:45:10;17.50;81.60
20091;DHT22;10205;49.678;6.560;2022-10-17T08:47:44;17.60;81.70
20091;DHT22;10205;49.678;6.560;2022-10-17T08:50:20;17.70;80.40
20091;DHT22;10205;49.678;6.560;2022-10-17T08:52:56;17.80;81.90
20091;DHT22;10205;49.678;6.560;2022-10-17T08:55:31;17.90;80.80
20091;DHT22;10205;49.678;6.560;2022-10-17T08:58:02;18.10;80.60
20091;DHT22;10205;49.678;6.560;2022-10-17T09:00:31;18.20;80.20
20091;DHT22;10205;49.678;6.560;2022-10-17T09:03:21;18.30;79.80
20091;DHT22;10205;49.678;6.560;2022-10-17T09:06:18;18.40;79.10
20091;DHT22;10205;49.678;6.560;2022-10-17T09:09:10;18.50;81.00
20091;DHT22;10205;49.678;6.560;2022-10-17T09:11:57;18.60;79.60
20091;DHT22;10205;49.678;6.560;2022-10-17T09:17:36;18.90;78.90
20091;DHT22;10205;49.678;6.560;2022-10-17T09:20:18;19.00;78.70
20091;DHT22;10205;49.678;6.560;2022-10-17T09:22:57;19.10;79.10
20091;DHT22;10205;49.678;6.560;2022-10-17T09:25:27;19.20;78.70
20091;DHT22;10205;49.678;6.560;2022-10-17T09:28:01;19.30;78.50
20091;DHT22;10205;49.678;6.560;2022-10-17T09:30:35;19.40;78.00
20091;DHT22;10205;49.678;6.560;2022-10-17T09:33:11;19.50;78.40
20091;DHT22;10205;49.678;6.560;2022-10-17T09:35:40;19.60;77.40
20091;DHT22;10205;49.678;6.560;2022-10-17T09:38:17;19.70;77.30
20091;DHT22;10205;49.678;6.560;2022-10-17T09:40:49;19.80;77.50
20091;DHT22;10205;49.678;6.560;2022-10-17T09:43:21;19.90;77.40
20091;DHT22;10205;49.678;6.560;2022-10-17T09:45:58;19.90;76.80
20091;DHT22;10205;49.678;6.560;2022-10-17T09:48:34;20.00;76.40
20091;DHT22;10205;49.678;6.560;2022-10-17T09:51:05;20.10;76.10
20091;DHT22;10205;49.678;6.560;2022-10-17T09:53:38;20.20;76.30
20091;DHT22;10205;49.678;6.560;2022-10-17T09:56:09;20.30;76.50
20091;DHT22;10205;49.678;6.560;2022-10-17T09:58:41;20.40;76.10
20091;DHT22;10205;49.678;6.560;2022-10-17T10:01:17;20.50;76.10
20091;DHT22;10205;49.678;6.560;2022-10-17T10:03:47;20.60;75.80
20091;DHT22;10205;49.678;6.560;2022-10-17T10:06:17;20.60;75.30
20091;DHT22;10205;49.678;6.560;2022-10-17T10:08:51;20.70;75.30
20091;DHT22;10205;49.678;6.560;2022-10-17T10:11:25;20.80;75.00
20091;DHT22;10205;49.678;6.560;2022-10-17T10:14:14;20.80;74.70
20091;DHT22;10205;49.678;6.560;2022-10-17T10:16:47;20.90;74.70
20091;DHT22;10205;49.678;6.560;2022-10-17T10:19:23;20.90;74.20
20091;DHT22;10205;49.678;6.560;2022-10-17T10:21:55;21.00;74.20
20091;DHT22;10205;49.678;6.560;2022-10-17T10:24:25;21.10;74.30
20091;DHT22;10205;49.678;6.560;2022-10-17T10:26:54;21.10;74.00
20091;DHT22;10205;49.678;6.560;2022-10-17T10:29:28;21.20;74.00
20091;DHT22;10205;49.678;6.560;2022-10-17T10:32:06;21.30;73.50
20091;DHT22;10205;49.678;6.560;2022-10-17T10:34:41;21.30;73.30
20091;DHT22;10205;49.678;6.560;2022-10-17T10:37:18;21.40;73.60
20091;DHT22;10205;49.678;6.560;2022-10-17T10:39:51;21.50;73.40
20091;DHT22;10205;49.678;6.560;2022-10-17T10:42:24;21.50;72.80
20091;DHT22;10205;49.678;6.560;2022-10-17T10:44:57;21.60;72.80
20091;DHT22;10205;49.678;6.560;2022-10-17T10:47:29;21.70;73.20
20091;DHT22;10205;49.678;6.560;2022-10-17T10:50:16;21.70;72.70
20091;DHT22;10205;49.678;6.560;2022-10-17T10:52:54;21.80;72.20
20091;DHT22;10205;49.678;6.560;2022-10-17T10:55:41;21.90;72.50
20091;DHT22;10205;49.678;6.560;2022-10-17T10:58:23;22.00;71.70
20091;DHT22;10205;49.678;6.560;2022-10-17T11:01:01;22.10;71.70
20091;DHT22;10205;49.678;6.560;2022-10-17T11:03:36;22.10;72.50
20091;DHT22;10205;49.678;6.560;2022-10-17T11:06:13;22.20;71.30
20091;DHT22;10205;49.678;6.560;2022-10-17T11:08:49;22.30;70.90
20091;DHT22;10205;49.678;6.560;2022-10-17T11:11:27;22.30;70.90
20091;DHT22;10205;49.678;6.560;2022-10-17T11:14:00;22.40;70.70
20091;DHT22;10205;49.678;6.560;2022-10-17T11:16:34;22.40;70.70
20091;DHT22;10205;49.678;6.560;2022-10-17T11:19:10;22.50;70.70
20091;DHT22;10205;49.678;6.560;2022-10-17T11:21:47;22.50;70.00
20091;DHT22;10205;49.678;6.560;2022-10-17T11:24:24;22.50;70.20
20091;DHT22;10205;49.678;6.560;2022-10-17T11:26:59;22.60;70.10
20091;DHT22;10205;49.678;6.560;2022-10-17T11:29:28;22.70;69.80
20091;DHT22;10205;49.678;6.560;2022-10-17T11:32:00;22.70;70.10
20091;DHT22;10205;49.678;6.560;2022-10-17T11:34:35;22.80;69.80
20091;DHT22;10205;49.678;6.560;2022-10-17T11:37:13;22.80;69.70
20091;DHT22;10205;49.678;6.560;2022-10-17T11:39:47;22.90;69.30
20091;DHT22;10205;49.678;6.560;2022-10-17T11:42:23;22.90;69.30
20091;DHT22;10205;49.678;6.560;2022-10-17T11:44:57;23.00;69.10
20091;DHT22;10205;49.678;6.560;2022-10-17T11:47:35;23.00;68.90
20091;DHT22;10205;49.678;6.560;2022-10-17T11:50:15;23.10;69.00
20091;DHT22;10205;49.678;6.560;2022-10-17T11:52:50;23.10;69.00
20091;DHT22;10205;49.678;6.560;2022-10-17T11:55:22;23.20;69.10
20091;DHT22;10205;49.678;6.560;2022-10-17T11:58:11;23.20;69.00
20091;DHT22;10205;49.678;6.560;2022-10-17T12:00:54;23.30;68.40
20091;DHT22;10205;49.678;6.560;2022-10-17T12:06:36;23.40;68.40
20091;DHT22;10205;49.678;6.560;2022-10-17T12:09:17;23.50;67.90
20091;DHT22;10205;49.678;6.560;2022-10-17T12:11:50;23.50;68.60
20091;DHT22;10205;49.678;6.560;2022-10-17T12:14:40;23.60;68.10
20091;DHT22;10205;49.678;6.560;2022-10-17T12:17:27;23.60;67.80
20091;DHT22;10205;49.678;6.560;2022-10-17T12:23:19;23.70;67.20
20091;DHT22;10205;49.678;6.560;2022-10-17T12:25:52;23.80;66.80
20091;DHT22;10205;49.678;6.560;2022-10-17T12:28:26;23.90;66.30
20091;DHT22;10205;49.678;6.560;2022-10-17T12:30:59;23.90;66.40
20091;DHT22;10205;49.678;6.560;2022-10-17T12:33:32;24.00;66.60
20091;DHT22;10205;49.678;6.560;2022-10-17T12:42:32;24.10;65.40
20091;DHT22;10205;49.678;6.560;2022-10-17T12:45:47;24.20;65.00
20091;DHT22;10205;49.678;6.560;2022-10-17T12:48:59;24.20;65.00
20091;DHT22;10205;49.678;6.560;2022-10-17T12:52:13;24.20;65.00
20091;DHT22;10205;49.678;6.560;2022-10-17T12:54:57;24.20;64.50
20091;DHT22;10205;49.678;6.560;2022-10-17T12:57:34;24.30;64.90
20091;DHT22;10205;49.678;6.560;2022-10-17T13:00:15;24.30;65.00
20091;DHT22;10205;49.678;6.560;2022-10-17T13:02:46;24.30;64.70
20091;DHT22;10205;49.678;6.560;2022-10-17T13:05:24;24.30;65.00
20091;DHT22;10205;49.678;6.560;2022-10-17T13:07:54;24.40;64.60
20091;DHT22;10205;49.678;6.560;2022-10-17T13:10:26;24.40;65.00
20091;DHT22;10205;49.678;6.560;2022-10-17T13:13:03;24.40;65.00
20091;DHT22;10205;49.678;6.560;2022-10-17T13:15:35;24.40;64.60
20091;DHT22;10205;49.678;6.560;2022-10-17T13:18:03;24.40;65.00
20091;DHT22;10205;49.678;6.560;2022-10-17T13:20:32;24.50;65.10
20091;DHT22;10205;49.678;6.560;2022-10-17T13:22:59;24.50;64.60
20091;DHT22;10205;49.678;6.560;2022-10-17T13:25:27;24.50;64.80
20091;DHT22;10205;49.678;6.560;2022-10-17T13:28:06;24.50;65.60
20091;DHT22;10205;49.678;6.560;2022-10-17T13:30:44;24.60;64.70
20091;DHT22;10205;49.678;6.560;2022-10-17T13:33:28;24.60;64.80
20091;DHT22;10205;49.678;6.560;2022-10-17T13:36:01;24.60;64.40
20091;DHT22;10205;49.678;6.560;2022-10-17T13:38:33;24.60;65.00
20091;DHT22;10205;49.678;6.560;2022-10-17T13:41:02;24.60;65.10
20091;DHT22;10205;49.678;6.560;2022-10-17T13:43:30;24.70;64.80
20091;DHT22;10205;49.678;6.560;2022-10-17T13:46:01;24.70;64.80
20091;DHT22;10205;49.678;6.560;2022-10-17T13:48:32;24.70;64.70
20091;DHT22;10205;49.678;6.560;2022-10-17T13:51:04;24.80;64.80
20091;DHT22;10205;49.678;6.560;2022-10-17T13:53:33;24.80;64.60
20091;DHT22;10205;49.678;6.560;2022-10-17T13:56:15;24.80;64.30
20091;DHT22;10205;49.678;6.560;2022-10-17T13:58:45;24.80;63.90
20091;DHT22;10205;49.678;6.560;2022-10-17T14:01:14;24.90;64.30
20091;DHT22;10205;49.678;6.560;2022-10-17T14:03:42;24.90;64.00
20091;DHT22;10205;49.678;6.560;2022-10-17T14:06:25;24.90;64.00
20091;DHT22;10205;49.678;6.560;2022-10-17T14:08:57;24.90;63.20
20091;DHT22;10205;49.678;6.560;2022-10-17T14:11:32;25.00;63.40
20091;DHT22;10205;49.678;6.560;2022-10-17T14:14:02;25.00;63.40
20091;DHT22;10205;49.678;6.560;2022-10-17T14:16:37;25.00;63.80
20091;DHT22;10205;49.678;6.560;2022-10-17T14:19:15;25.00;63.60
20091;DHT22;10205;49.678;6.560;2022-10-17T14:21:52;25.00;63.60
20091;DHT22;10205;49.678;6.560;2022-10-17T14:24:27;25.00;63.40
20091;DHT22;10205;49.678;6.560;2022-10-17T14:26:57;25.10;63.40
20091;DHT22;10205;49.678;6.560;2022-10-17T14:29:27;25.10;63.80
20091;DHT22;10205;49.678;6.560;2022-10-17T14:32:01;25.10;63.50
20091;DHT22;10205;49.678;6.560;2022-10-17T14:34:33;25.10;63.00
20091;DHT22;10205;49.678;6.560;2022-10-17T14:37:08;25.10;63.00
20091;DHT22;10205;49.678;6.560;2022-10-17T14:39:37;25.20;63.00
20091;DHT22;10205;49.678;6.560;2022-10-17T14:42:04;25.20;63.20
20091;DHT22;10205;49.678;6.560;2022-10-17T14:44:34;25.20;63.40
20091;DHT22;10205;49.678;6.560;2022-10-17T14:47:03;25.20;62.90
20091;DHT22;10205;49.678;6.560;2022-10-17T14:49:35;25.20;62.90
20091;DHT22;10205;49.678;6.560;2022-10-17T14:52:25;25.30;62.80
20091;DHT22;10205;49.678;6.560;2022-10-17T14:54:54;25.20;62.40
20091;DHT22;10205;49.678;6.560;2022-10-17T14:57:26;25.30;62.60
20091;DHT22;10205;49.678;6.560;2022-10-17T15:00:12;25.30;63.00
20091;DHT22;10205;49.678;6.560;2022-10-17T15:02:40;25.30;63.20
20091;DHT22;10205;49.678;6.560;2022-10-17T15:05:11;25.30;63.80
20091;DHT22;10205;49.678;6.560;2022-10-17T15:07:41;25.30;62.60
20091;DHT22;10205;49.678;6.560;2022-10-17T15:10:24;25.30;63.10
20091;DHT22;10205;49.678;6.560;2022-10-17T15:12:54;25.30;62.70
20091;DHT22;10205;49.678;6.560;2022-10-17T15:15:21;25.30;63.60
20091;DHT22;10205;49.678;6.560;2022-10-17T15:17:48;25.30;63.20
20091;DHT22;10205;49.678;6.560;2022-10-17T15:20:16;25.30;63.40
20091;DHT22;10205;49.678;6.560;2022-10-17T15:22:45;25.30;63.80
20091;DHT22;10205;49.678;6.560;2022-10-17T15:25:13;25.30;63.50
20091;DHT22;10205;49.678;6.560;2022-10-17T15:27:40;25.30;63.60
20091;DHT22;10205;49.678;6.560;2022-10-17T15:30:17;25.30;63.80
20091;DHT22;10205;49.678;6.560;2022-10-17T15:32:46;25.30;64.00
20091;DHT22;10205;49.678;6.560;2022-10-17T15:35:15;25.30;64.80
20091;DHT22;10205;49.678;6.560;2022-10-17T15:37:45;25.40;65.40
20091;DHT22;10205;49.678;6.560;2022-10-17T15:40:16;25.40;65.40
20091;DHT22;10205;49.678;6.560;2022-10-17T15:42:45;25.40;65.70
20091;DHT22;10205;49.678;6.560;2022-10-17T15:45:14;25.50;66.00
20091;DHT22;10205;49.678;6.560;2022-10-17T15:47:49;25.50;65.60
20091;DHT22;10205;49.678;6.560;2022-10-17T15:50:18;25.50;65.10
20091;DHT22;10205;49.678;6.560;2022-10-17T15:52:47;25.60;65.90
20091;DHT22;10205;49.678;6.560;2022-10-17T15:55:17;25.60;66.00
20091;DHT22;10205;49.678;6.560;2022-10-17T15:57:46;25.60;66.00
20091;DHT22;10205;49.678;6.560;2022-10-17T16:00:16;25.60;65.60
20091;DHT22;10205;49.678;6.560;2022-10-17T16:02:45;25.70;65.20
20091;DHT22;10205;49.678;6.560;2022-10-17T16:05:15;25.70;65.60
20091;DHT22;10205;49.678;6.560;2022-10-17T16:07:49;25.80;65.70
20091;DHT22;10205;49.678;6.560;2022-10-17T16:10:16;25.80;65.70
20091;DHT22;10205;49.678;6.560;2022-10-17T16:12:44;25.80;65.60
20091;DHT22;10205;49.678;6.560;2022-10-17T16:15:15;25.90;65.40
20091;DHT22;10205;49.678;6.560;2022-10-17T16:17:44;25.90;65.10